createdAt,value
2023-02-09T00:01:31.894Z,94.23
2023-02-09T00:04:00.662Z,94.36
2023-02-09T00:06:30.012Z,94.20
2023-02-09T00:08:59.051Z,94.08
2023-02-09T00:11:50.130Z,94.07
2023-02-09T00:14:21.991Z,93.88
2023-02-09T00:16:50.510Z,93.82
2023-02-09T00:19:20.451Z,93.89
2023-02-09T00:21:48.327Z,93.51
2023-02-09T00:24:16.244Z,93.72
2023-02-09T00:26:44.183Z,93.94
2023-02-09T00:29:12.949Z,94.10
2023-02-09T00:31:40.701Z,93.65
2023-02-09T00:34:09.005Z,94.18
2023-02-09T00:36:36.597Z,93.38
2023-02-09T00:39:04.894Z,93.77
2023-02-09T00:41:51.972Z,93.41
2023-02-09T00:44:19.944Z,93.82
2023-02-09T00:46:49.213Z,93.43
2023-02-09T00:49:17.041Z,93.81
2023-02-09T00:51:44.893Z,93.94
2023-02-09T00:54:13.598Z,93.82
2023-02-09T00:56:41.140Z,93.95
2023-02-09T00:59:09.405Z,94.24
2023-02-09T01:01:37.849Z,93.78
2023-02-09T01:04:06.159Z,94.10
2023-02-09T01:06:34.265Z,93.94
2023-02-09T01:09:02.695Z,94.10
2023-02-09T01:11:30.495Z,94.09
2023-02-09T01:14:00.011Z,93.72
2023-02-09T01:16:28.966Z,94.01
2023-02-09T01:18:59.184Z,93.99
2023-02-09T01:21:27.325Z,93.60
2023-02-09T01:23:55.662Z,93.67
2023-02-09T01:26:23.581Z,93.84
2023-02-09T01:28:54.520Z,93.95
2023-02-09T01:31:34.858Z,94.05
2023-02-09T01:34:04.086Z,94.14
2023-02-09T01:36:32.984Z,93.72
2023-02-09T01:39:02.410Z,93.85
2023-02-09T01:41:30.319Z,93.21
2023-02-09T01:44:11.912Z,93.47
2023-02-09T01:46:40.100Z,93.21
2023-02-09T01:49:18.247Z,93.01
2023-02-09T01:52:15.196Z,92.71
2023-02-09T01:54:48.921Z,92.26
2023-02-09T01:57:18.621Z,91.52
2023-02-09T01:59:52.839Z,90.81
2023-02-09T02:02:21.818Z,90.92
2023-02-09T02:04:51.233Z,90.40
2023-02-09T02:07:45.569Z,89.36
2023-02-09T02:10:13.964Z,88.70
2023-02-09T02:12:43.012Z,88.06
2023-02-09T02:15:12.854Z,88.26
2023-02-09T02:18:01.968Z,87.71
2023-02-09T02:20:41.758Z,87.15
2023-02-09T02:23:43.195Z,87.10
2023-02-09T02:26:43.899Z,87.25
2023-02-09T02:30:03.025Z,87.06
2023-02-09T02:33:12.986Z,87.05
2023-02-09T02:35:44.600Z,86.78
2023-02-09T02:38:33.422Z,86.58
2023-02-09T02:41:15.040Z,86.75
2023-02-09T02:43:54.328Z,86.29
2023-02-09T02:46:26.362Z,86.00
2023-02-09T02:49:00.732Z,85.45
2023-02-09T02:51:35.479Z,85.43
2023-02-09T02:54:08.355Z,84.75
2023-02-09T02:56:51.023Z,84.76
2023-02-09T02:59:27.066Z,84.52
2023-02-09T03:02:06.346Z,84.28
2023-02-09T03:04:36.683Z,84.20
2023-02-09T03:07:09.167Z,84.37
2023-02-09T03:09:37.030Z,84.42
2023-02-09T03:12:16.287Z,84.49
2023-02-09T03:15:07.878Z,84.12
2023-02-09T03:17:54.127Z,83.75
2023-02-09T03:20:29.818Z,83.58
2023-02-09T03:23:02.612Z,83.33
2023-02-09T03:25:43.759Z,83.49
2023-02-09T03:28:20.307Z,83.27
2023-02-09T03:30:50.201Z,82.97
2023-02-09T03:33:29.613Z,82.87
2023-02-09T03:36:00.176Z,82.87
2023-02-09T03:38:28.205Z,82.79
2023-02-09T03:40:56.183Z,83.00
2023-02-09T03:43:46.473Z,83.11
2023-02-09T03:46:14.543Z,82.53
2023-02-09T03:48:42.101Z,82.69
2023-02-09T03:51:10.406Z,82.50
2023-02-09T03:53:37.954Z,82.01
2023-02-09T03:56:09.302Z,81.57
2023-02-09T03:58:37.716Z,82.01
2023-02-09T04:01:08.042Z,82.31
2023-02-09T04:03:36.592Z,82.42
2023-02-09T04:06:04.829Z,82.75
2023-02-09T04:08:33.255Z,83.18
2023-02-09T04:11:01.275Z,83.06
2023-02-09T04:13:29.137Z,82.51
2023-02-09T04:15:57.164Z,82.21
2023-02-09T04:18:24.954Z,82.01
2023-02-09T04:20:52.810Z,81.53
2023-02-09T04:23:21.201Z,81.57
2023-02-09T04:25:49.282Z,82.14
2023-02-09T04:28:18.511Z,82.39
2023-02-09T04:30:51.151Z,82.71
2023-02-09T04:33:18.725Z,83.11
2023-02-09T04:35:48.848Z,83.12
2023-02-09T04:38:19.438Z,83.09
2023-02-09T04:40:48.327Z,83.28
2023-02-09T04:43:15.986Z,83.42
2023-02-09T04:45:44.408Z,83.53
2023-02-09T04:48:18.607Z,82.83
2023-02-09T04:50:47.342Z,82.45
2023-02-09T04:53:15.602Z,82.55
2023-02-09T04:55:45.360Z,82.77
2023-02-09T04:58:34.301Z,83.45
2023-02-09T05:01:03.117Z,83.84
2023-02-09T05:03:31.583Z,83.95
2023-02-09T05:06:02.086Z,84.32
2023-02-09T05:08:30.407Z,84.66
2023-02-09T05:10:58.671Z,84.87
2023-02-09T05:13:27.039Z,85.42
2023-02-09T05:15:55.452Z,85.58
2023-02-09T05:18:24.449Z,85.92
2023-02-09T05:20:52.409Z,86.04
2023-02-09T05:23:20.664Z,86.29
2023-02-09T05:25:48.589Z,86.61
2023-02-09T05:28:16.572Z,87.08
2023-02-09T05:30:44.988Z,86.98
2023-02-09T05:33:12.794Z,87.59
2023-02-09T05:35:40.636Z,87.75
2023-02-09T05:38:08.240Z,87.77
2023-02-09T05:40:36.060Z,88.24
2023-02-09T05:43:03.710Z,88.24
2023-02-09T05:45:31.624Z,88.42
2023-02-09T05:47:59.208Z,88.73
2023-02-09T05:50:27.154Z,88.82
2023-02-09T05:52:58.196Z,89.01
2023-02-09T05:55:26.420Z,89.13
2023-02-09T05:57:54.012Z,89.27
2023-02-09T06:00:23.742Z,89.61
2023-02-09T06:02:51.662Z,89.93
2023-02-09T06:05:21.944Z,89.76
2023-02-09T06:07:49.749Z,90.03
2023-02-09T06:10:18.733Z,90.14
2023-02-09T06:12:46.757Z,90.53
2023-02-09T06:15:16.459Z,90.12
2023-02-09T06:17:44.526Z,90.35
2023-02-09T06:20:12.765Z,90.21
2023-02-09T06:22:40.726Z,90.31
2023-02-09T06:25:08.974Z,90.74
2023-02-09T06:27:36.909Z,90.18
2023-02-09T06:30:06.110Z,90.20
2023-02-09T06:32:33.833Z,90.50
2023-02-09T06:35:01.721Z,90.20
2023-02-09T06:37:29.351Z,90.52
2023-02-09T06:39:57.232Z,89.96
2023-02-09T06:42:24.904Z,89.93
2023-02-09T06:44:52.758Z,89.84
2023-02-09T06:47:20.433Z,89.86
2023-02-09T06:49:48.260Z,89.80
2023-02-09T06:52:15.965Z,89.48
2023-02-09T06:54:45.138Z,87.94
2023-02-09T06:57:12.823Z,85.53
2023-02-09T06:59:40.604Z,82.47
2023-02-09T07:02:11.080Z,80.62
2023-02-09T07:04:38.918Z,79.95
2023-02-09T07:07:06.551Z,79.29
2023-02-09T07:09:34.486Z,77.63
2023-02-09T07:12:02.051Z,76.24
2023-02-09T07:14:29.913Z,74.89
2023-02-09T07:16:57.898Z,73.52
2023-02-09T07:19:25.797Z,73.07
2023-02-09T07:21:53.492Z,73.36
2023-02-09T07:24:21.465Z,72.84
2023-02-09T07:26:49.144Z,72.13
2023-02-09T07:29:17.335Z,71.46
2023-02-09T07:31:45.083Z,71.65
2023-02-09T07:34:12.994Z,71.03
2023-02-09T07:36:40.562Z,70.86
2023-02-09T07:39:08.709Z,71.10
2023-02-09T07:41:36.435Z,70.75
2023-02-09T07:44:04.218Z,70.05
2023-02-09T07:46:31.926Z,69.83
2023-02-09T07:49:01.489Z,69.07
2023-02-09T07:51:29.688Z,68.21
2023-02-09T07:53:59.435Z,67.64
2023-02-09T07:56:27.946Z,68.21
2023-02-09T07:58:56.380Z,68.00
2023-02-09T08:01:24.884Z,68.20
2023-02-09T08:03:52.908Z,67.64
2023-02-09T08:06:41.094Z,67.60
2023-02-09T08:09:11.773Z,67.11
2023-02-09T08:11:45.815Z,66.78
2023-02-09T08:14:20.032Z,65.08
2023-02-09T08:16:49.928Z,63.40
2023-02-09T08:19:22.046Z,62.21
2023-02-09T08:21:51.140Z,61.03
2023-02-09T08:24:20.956Z,59.65
2023-02-09T08:26:48.533Z,58.05
2023-02-09T08:29:16.515Z,56.07
2023-02-09T08:31:44.328Z,54.06
2023-02-09T08:34:12.205Z,52.29
2023-02-09T08:36:41.447Z,50.36
2023-02-09T08:39:10.129Z,49.00
2023-02-09T08:41:37.956Z,48.00
2023-02-09T08:44:05.965Z,46.48
2023-02-09T08:46:36.012Z,44.99
2023-02-09T08:49:04.193Z,43.52
2023-02-09T08:51:31.693Z,41.98
2023-02-09T08:53:59.600Z,41.56
2023-02-09T08:56:27.352Z,40.20
2023-02-09T08:58:55.309Z,39.14
2023-02-09T09:01:23.066Z,38.08
2023-02-09T09:03:51.103Z,37.46
2023-02-09T09:06:18.956Z,36.92
2023-02-09T09:08:46.949Z,35.98
2023-02-09T09:11:14.914Z,35.29
2023-02-09T09:13:43.403Z,34.47
2023-02-09T09:16:16.611Z,34.16
2023-02-09T09:18:45.338Z,34.30
2023-02-09T09:21:14.490Z,33.91
2023-02-09T09:23:43.554Z,33.39
2023-02-09T09:26:11.580Z,33.09
2023-02-09T09:28:39.589Z,33.29
2023-02-09T09:31:12.448Z,32.86
2023-02-09T09:33:41.760Z,33.04
2023-02-09T09:36:10.443Z,32.99
2023-02-09T09:38:39.690Z,32.70
2023-02-09T09:41:33.002Z,32.58
2023-02-09T09:44:02.542Z,32.70
2023-02-09T09:46:39.539Z,32.70
2023-02-09T09:49:18.786Z,32.35
2023-02-09T09:51:52.444Z,31.64
2023-02-09T09:54:21.968Z,32.05
2023-02-09T09:56:51.315Z,32.27
2023-02-09T09:59:26.731Z,32.05
2023-02-09T10:01:56.378Z,32.29
2023-02-09T10:04:24.404Z,32.17
2023-02-09T10:07:10.886Z,32.41
2023-02-09T10:09:44.684Z,32.47
2023-02-09T10:12:36.025Z,32.63
2023-02-09T10:15:33.821Z,32.51
2023-02-09T10:18:02.104Z,32.73
2023-02-09T10:20:48.810Z,32.57
2023-02-09T10:23:24.135Z,32.84
2023-02-09T10:25:52.278Z,32.57
2023-02-09T10:28:22.630Z,32.59
2023-02-09T10:30:56.176Z,32.35
2023-02-09T10:33:24.373Z,32.24
2023-02-09T10:35:54.986Z,32.18
2023-02-09T10:38:28.093Z,33.44
2023-02-09T10:40:56.202Z,34.91
2023-02-09T10:43:33.803Z,36.98
2023-02-09T10:46:10.381Z,38.29
2023-02-09T10:48:43.535Z,39.69
2023-02-09T10:51:28.959Z,40.27
2023-02-09T10:54:04.815Z,41.00
2023-02-09T10:56:45.762Z,41.64
2023-02-09T10:59:19.103Z,41.83
2023-02-09T11:02:02.085Z,43.44
2023-02-09T11:04:40.820Z,43.96
2023-02-09T11:07:18.104Z,43.59
2023-02-09T11:09:49.223Z,44.15
2023-02-09T11:12:20.439Z,44.09
2023-02-09T11:14:48.603Z,44.36
2023-02-09T11:17:21.663Z,44.62
2023-02-09T11:20:10.952Z,45.15
2023-02-09T11:23:06.828Z,44.87
2023-02-09T11:26:09.081Z,45.16
2023-02-09T11:28:58.013Z,45.66
2023-02-09T11:31:40.309Z,45.53
2023-02-09T11:34:52.607Z,45.69
2023-02-09T11:37:25.985Z,45.43
2023-02-09T11:40:19.479Z,45.32
2023-02-09T11:42:59.323Z,45.54
2023-02-09T11:45:50.118Z,45.73
2023-02-09T11:48:20.905Z,45.94
2023-02-09T11:51:10.024Z,46.11
2023-02-09T11:53:49.405Z,45.59
2023-02-09T11:56:21.023Z,45.22
2023-02-09T11:59:21.823Z,44.76
2023-02-09T12:02:18.701Z,45.02
2023-02-09T12:04:58.688Z,44.85
2023-02-09T12:07:48.773Z,44.19
2023-02-09T12:10:34.175Z,43.70
2023-02-09T12:13:12.731Z,43.78
2023-02-09T12:15:52.259Z,43.85
2023-02-09T12:18:24.392Z,43.84
2023-02-09T12:20:53.962Z,43.51
2023-02-09T12:23:41.573Z,43.08
2023-02-09T12:26:12.207Z,42.79
2023-02-09T12:28:53.909Z,42.99
2023-02-09T12:31:26.840Z,42.67
2023-02-09T12:34:10.840Z,42.34
2023-02-09T12:36:59.977Z,42.14
2023-02-09T12:39:29.787Z,41.60
2023-02-09T12:42:03.488Z,41.80
2023-02-09T12:44:31.428Z,41.57
2023-02-09T12:46:59.023Z,41.48
2023-02-09T12:49:30.021Z,41.65
2023-02-09T12:52:10.066Z,41.65
2023-02-09T12:54:56.714Z,41.42
2023-02-09T12:57:45.679Z,41.19
2023-02-09T13:00:15.175Z,41.52
2023-02-09T13:02:56.584Z,41.74
2023-02-09T13:05:29.062Z,41.83
2023-02-09T13:08:05.271Z,41.48
2023-02-09T13:10:50.796Z,42.22
2023-02-09T13:13:20.690Z,42.61
2023-02-09T13:15:54.513Z,41.95
2023-02-09T13:18:59.538Z,42.44
2023-02-09T13:21:56.318Z,43.12
2023-02-09T13:24:47.313Z,42.90
2023-02-09T13:27:21.016Z,42.95
2023-02-09T13:29:53.872Z,43.05
2023-02-09T13:32:52.379Z,43.23
2023-02-09T13:35:27.246Z,42.77
2023-02-09T13:37:57.495Z,43.05
2023-02-09T13:40:35.463Z,43.59
2023-02-09T13:43:13.036Z,44.09
2023-02-09T13:45:54.995Z,43.98
2023-02-09T13:48:26.118Z,44.35
2023-02-09T13:50:55.480Z,43.67
2023-02-09T13:53:25.558Z,43.69
2023-02-09T13:55:56.028Z,43.35
2023-02-09T13:58:30.986Z,43.73
2023-02-09T14:01:05.219Z,43.75
2023-02-09T14:03:56.775Z,43.76
2023-02-09T14:06:25.259Z,43.92
2023-02-09T14:08:55.093Z,43.57
2023-02-09T14:11:44.140Z,44.12
2023-02-09T14:15:00.334Z,44.01
2023-02-09T14:17:31.406Z,44.38
2023-02-09T14:20:00.241Z,44.34
2023-02-09T14:22:54.463Z,44.25
2023-02-09T14:25:26.097Z,44.03
2023-02-09T14:27:54.501Z,44.48
2023-02-09T14:30:26.593Z,44.44
2023-02-09T14:32:57.543Z,44.34
2023-02-09T14:35:29.048Z,44.37
2023-02-09T14:38:00.046Z,44.10
2023-02-09T14:40:28.055Z,44.01
2023-02-09T14:43:08.972Z,44.50
2023-02-09T14:45:39.928Z,44.26
2023-02-09T14:48:18.554Z,44.30
2023-02-09T14:50:48.594Z,44.17
2023-02-09T14:53:18.098Z,44.00
2023-02-09T14:55:46.362Z,44.79
2023-02-09T14:58:21.822Z,44.07
2023-02-09T15:00:51.049Z,44.57
2023-02-09T15:03:18.660Z,44.47
2023-02-09T15:05:52.347Z,44.52
2023-02-09T15:08:23.764Z,44.87
2023-02-09T15:10:56.667Z,45.15
2023-02-09T15:13:25.429Z,45.13
2023-02-09T15:15:53.341Z,44.93
2023-02-09T15:18:23.768Z,44.99
2023-02-09T15:20:52.176Z,45.45
2023-02-09T15:23:20.207Z,45.68
2023-02-09T15:25:48.739Z,45.42
2023-02-09T15:28:32.319Z,45.88
2023-02-09T15:31:00.555Z,45.76
2023-02-09T15:33:29.528Z,46.24
2023-02-09T15:35:59.973Z,46.73
2023-02-09T15:38:28.017Z,46.80
2023-02-09T15:41:14.929Z,47.01
2023-02-09T15:44:00.909Z,47.33
2023-02-09T15:46:47.320Z,47.35
2023-02-09T15:49:14.876Z,47.45
2023-02-09T15:51:42.985Z,47.48
2023-02-09T15:54:17.853Z,47.76
2023-02-09T15:56:46.132Z,47.94
2023-02-09T15:59:23.041Z,47.68
2023-02-09T16:01:52.338Z,47.77
2023-02-09T16:04:20.041Z,47.84
2023-02-09T16:06:54.342Z,47.67
2023-02-09T16:09:26.639Z,47.96
2023-02-09T16:11:55.056Z,48.07
2023-02-09T16:14:24.673Z,48.45
2023-02-09T16:16:53.073Z,48.80
2023-02-09T16:19:21.488Z,48.81
2023-02-09T16:21:53.039Z,48.73
2023-02-09T16:24:42.166Z,48.70
2023-02-09T16:27:28.389Z,48.90
2023-02-09T16:29:57.831Z,49.28
2023-02-09T16:32:28.467Z,49.31
2023-02-09T16:35:04.479Z,49.51
2023-02-09T16:37:39.181Z,49.28
2023-02-09T16:40:15.133Z,49.51
2023-02-09T16:42:43.742Z,49.66
2023-02-09T16:45:16.276Z,49.33
2023-02-09T16:47:49.690Z,49.77
2023-02-09T16:50:25.124Z,49.35
2023-02-09T16:52:55.755Z,49.38
2023-02-09T16:55:27.361Z,49.72
2023-02-09T16:57:57.666Z,49.48
2023-02-09T17:00:32.179Z,49.39
2023-02-09T17:03:14.073Z,49.12
2023-02-09T17:05:48.473Z,49.36
2023-02-09T17:08:22.520Z,49.49
2023-02-09T17:10:52.404Z,49.53
2023-02-09T17:13:21.404Z,49.59
2023-02-09T17:15:51.600Z,49.54
2023-02-09T17:18:28.482Z,49.28
2023-02-09T17:21:01.591Z,49.88
2023-02-09T17:23:30.572Z,49.77
2023-02-09T17:25:58.956Z,50.12
2023-02-09T17:28:28.384Z,50.06
2023-02-09T17:31:01.883Z,50.57
2023-02-09T17:33:31.961Z,50.61
2023-02-09T17:38:48.518Z,50.86
2023-02-09T17:41:20.508Z,51.34
2023-02-09T17:43:50.739Z,51.70
2023-02-09T17:46:19.821Z,52.07
2023-02-09T17:48:48.269Z,52.67
2023-02-09T17:51:34.493Z,52.48
2023-02-09T17:54:06.452Z,52.86
2023-02-09T17:56:34.319Z,53.02
2023-02-09T17:59:08.082Z,53.06
2023-02-09T18:01:41.970Z,53.32
2023-02-09T18:04:20.088Z,53.78
2023-02-09T18:06:48.371Z,53.85
2023-02-09T18:09:16.577Z,54.32
2023-02-09T18:11:47.191Z,54.25
2023-02-09T18:14:16.539Z,54.48
2023-02-09T18:16:45.108Z,55.02
2023-02-09T18:19:13.999Z,54.75
2023-02-09T18:22:11.807Z,55.02
2023-02-09T18:24:40.063Z,55.48
2023-02-09T18:27:08.809Z,55.74
2023-02-09T18:29:36.689Z,55.64
2023-02-09T18:32:04.657Z,55.90
2023-02-09T18:34:32.750Z,56.46
2023-02-09T18:37:00.297Z,56.41
2023-02-09T18:39:28.172Z,56.39
2023-02-09T18:41:55.762Z,56.39
2023-02-09T18:44:28.875Z,57.12
2023-02-09T18:49:17.577Z,57.30
2023-02-09T18:51:45.711Z,57.79
2023-02-09T18:54:13.249Z,57.54
2023-02-09T18:56:41.183Z,57.34
2023-02-09T18:59:08.811Z,57.62
2023-02-09T19:01:36.923Z,57.19
2023-02-09T19:04:04.816Z,57.37
2023-02-09T19:06:35.409Z,57.50
2023-02-09T19:09:03.037Z,57.44
2023-02-09T19:11:30.925Z,57.03
2023-02-09T19:14:17.076Z,57.19
2023-02-09T19:16:44.910Z,57.08
2023-02-09T19:19:13.405Z,56.54
2023-02-09T19:21:41.239Z,56.51
2023-02-09T19:24:08.862Z,56.56
2023-02-09T19:26:36.746Z,56.90
2023-02-09T19:29:04.297Z,56.18
2023-02-09T19:31:32.270Z,56.43
2023-02-09T19:33:59.943Z,56.43
2023-02-09T19:36:28.308Z,56.43
2023-02-09T19:38:56.737Z,56.24
2023-02-09T19:41:25.725Z,56.25
2023-02-09T19:43:57.626Z,56.26
2023-02-09T19:46:26.102Z,55.48
2023-02-09T19:48:53.931Z,55.53
2023-02-09T19:51:22.615Z,55.76
2023-02-09T19:53:50.730Z,55.47
2023-02-09T19:56:20.852Z,55.40
2023-02-09T19:58:48.425Z,56.05
2023-02-09T20:01:17.177Z,55.99
2023-02-09T20:03:44.915Z,56.12
2023-02-09T20:06:14.245Z,55.64
2023-02-09T20:08:42.273Z,56.09
2023-02-09T20:11:12.951Z,55.72
2023-02-09T20:13:41.068Z,56.24
2023-02-09T20:16:23.440Z,56.40
2023-02-09T20:18:52.213Z,56.05
2023-02-09T20:21:22.201Z,56.67
2023-02-09T20:23:53.237Z,56.63
2023-02-09T20:26:25.966Z,56.23
2023-02-09T20:28:54.236Z,56.31
2023-02-09T20:31:27.529Z,56.39
2023-02-09T20:33:55.948Z,56.33
2023-02-09T20:36:25.578Z,56.61
2023-02-09T20:38:53.697Z,56.55
2023-02-09T20:41:21.558Z,56.64
2023-02-09T20:44:07.674Z,57.14
2023-02-09T20:46:55.903Z,56.81
2023-02-09T20:49:26.005Z,57.38
2023-02-09T20:51:53.976Z,57.28
2023-02-09T20:54:21.577Z,57.17
2023-02-09T20:56:49.608Z,57.17
2023-02-09T20:59:17.855Z,57.47
2023-02-09T21:01:45.998Z,57.94
2023-02-09T21:04:13.665Z,57.75
2023-02-09T21:06:41.548Z,57.96
2023-02-09T21:09:11.933Z,57.93
2023-02-09T21:11:40.100Z,57.92
2023-02-09T21:14:13.228Z,57.70
2023-02-09T21:16:45.343Z,57.51
2023-02-09T21:19:13.001Z,57.60
2023-02-09T21:21:40.921Z,57.97
2023-02-09T21:24:08.600Z,57.89
2023-02-09T21:26:40.226Z,57.88
2023-02-09T21:29:08.356Z,57.86
2023-02-09T21:31:36.397Z,57.94
2023-02-09T21:34:04.528Z,58.18
2023-02-09T21:36:32.704Z,57.68
2023-02-09T21:39:00.879Z,57.71
2023-02-09T21:41:47.180Z,57.76
2023-02-09T21:44:15.223Z,58.15
2023-02-09T21:46:43.572Z,57.90
2023-02-09T21:49:12.837Z,57.75
2023-02-09T21:51:41.925Z,57.97
2023-02-09T21:54:14.744Z,57.19
2023-02-09T21:56:43.339Z,57.41
2023-02-09T21:59:11.397Z,57.46
2023-02-09T22:01:40.744Z,57.03
2023-02-09T22:04:08.682Z,57.65
2023-02-09T22:06:36.623Z,57.45
2023-02-09T22:09:06.290Z,57.59
2023-02-09T22:11:34.524Z,57.53
2023-02-09T22:14:02.177Z,57.08
2023-02-09T22:16:30.227Z,57.69
2023-02-09T22:18:58.713Z,57.42
2023-02-09T22:21:27.019Z,57.13
2023-02-09T22:23:55.131Z,57.54
2023-02-09T22:26:23.286Z,57.24
2023-02-09T22:28:50.996Z,57.93
2023-02-09T22:31:20.984Z,57.53
2023-02-09T22:33:53.907Z,57.96
2023-02-09T22:36:23.391Z,58.09
2023-02-09T22:38:51.786Z,58.25
2023-02-09T22:41:22.017Z,58.28
2023-02-09T22:43:56.540Z,58.01
2023-02-09T22:46:27.483Z,58.21
2023-02-09T22:48:57.438Z,58.30
2023-02-09T22:51:28.388Z,57.92
2023-02-09T22:53:56.916Z,58.15
2023-02-09T22:56:25.911Z,58.62
2023-02-09T22:58:54.876Z,58.68
2023-02-09T23:01:23.138Z,58.08
2023-02-09T23:03:51.176Z,58.57
2023-02-09T23:06:27.073Z,58.49
2023-02-09T23:09:00.600Z,58.84
2023-02-09T23:11:30.223Z,58.69
2023-02-09T23:14:14.069Z,58.71
2023-02-09T23:16:43.607Z,58.68
2023-02-09T23:19:17.171Z,59.21
2023-02-09T23:21:47.756Z,58.93
2023-02-09T23:24:18.266Z,59.56
2023-02-09T23:26:46.107Z,59.11
2023-02-09T23:29:15.874Z,59.70
2023-02-09T23:31:45.378Z,59.66
2023-02-09T23:34:19.441Z,59.25
2023-02-09T23:36:48.107Z,59.69
2023-02-09T23:39:18.718Z,59.68
2023-02-09T23:41:46.802Z,60.01
2023-02-09T23:44:14.509Z,59.88
2023-02-09T23:46:42.613Z,60.41
2023-02-09T23:49:11.009Z,60.42
2023-02-09T23:51:38.867Z,60.33
2023-02-09T23:54:07.635Z,60.21
2023-02-09T23:56:38.823Z,60.46
2023-02-09T23:59:10.124Z,60.79
